Time;durP1;ratioP1;P1;durP2;ratioP2;P2;SDS_P1;SDS_P2;PMS_P1;PMS_P2;Temp;Humidity;BMP_temperature;BMP_pressure;BME280_temperature;BME280_humidity;BME280_pressure;Samples;Min_cycle;Max_cycle;Signal;HPM_P1;HPM_P2
2021/10/01 00:01:11;;;;;;;4.28;3.00;;;21.80;62.60;;;;;;5074085;23;20532;-65
2021/10/01 00:03:13;;;;;;;3.20;2.65;;;21.80;62.50;;;;;;5075259;23;20820;-65
2021/10/01 00:05:15;;;;;;;4.82;2.67;;;21.80;62.50;;;;;;5069808;23;20028;-66
2021/10/01 00:07:18;;;;;;;5.95;2.42;;;21.80;62.60;;;;;;5070522;23;20541;-66
2021/10/01 00:09:20;;;;;;;3.88;2.47;;;21.80;62.70;;;;;;5072031;23;20040;-66
2021/10/01 00:11:22;;;;;;;3.28;2.25;;;21.90;62.60;;;;;;5067283;23;20033;-66
2021/10/01 00:13:26;;;;;;;3.00;2.10;;;21.90;62.50;;;;;;5038540;23;20041;-67
2021/10/01 00:15:28;;;;;;;3.60;2.30;;;21.90;62.50;;;;;;5039835;23;21004;-66
2021/10/01 00:17:31;;;;;;;4.15;2.15;;;21.90;62.40;;;;;;5066464;23;20164;-67
2021/10/01 00:19:34;;;;;;;2.28;2.05;;;21.90;62.20;;;;;;5094219;23;20329;-66
2021/10/01 00:21:36;;;;;;;2.95;1.90;;;22.00;62.30;;;;;;5068380;23;20048;-65
2021/10/01 00:23:38;;;;;;;2.53;2.15;;;22.00;62.20;;;;;;5067598;23;20044;-66
2021/10/01 00:25:41;;;;;;;2.13;1.90;;;22.00;62.20;;;;;;5065237;23;20029;-66
2021/10/01 00:27:43;;;;;;;3.97;2.10;;;22.00;62.30;;;;;;5040361;23;20369;-66
2021/10/01 00:29:46;;;;;;;3.40;2.10;;;22.00;62.30;;;;;;5068813;23;20271;-66
2021/10/01 00:31:48;;;;;;;4.53;2.35;;;22.10;62.30;;;;;;5064689;23;20928;-65
2021/10/01 00:33:50;;;;;;;5.57;2.42;;;22.00;62.30;;;;;;5063618;23;20886;-66
2021/10/01 00:35:52;;;;;;;5.30;2.58;;;22.00;62.50;;;;;;5065478;23;20077;-66
2021/10/01 00:37:57;;;;;;;3.95;2.40;;;22.10;62.40;;;;;;5091980;23;20722;-66
2021/10/01 00:40:00;;;;;;;7.93;2.65;;;22.10;62.30;;;;;;5065637;23;20053;-66
2021/10/01 00:42:02;;;;;;;3.28;2.05;;;22.10;62.30;;;;;;5061859;23;20071;-66
2021/10/01 00:44:05;;;;;;;4.30;2.67;;;22.10;62.20;;;;;;5062054;23;20037;-66
2021/10/01 00:46:08;;;;;;;3.33;2.35;;;22.10;62.30;;;;;;5092111;23;20647;-66
2021/10/01 00:48:10;;;;;;;3.40;2.42;;;22.10;62.20;;;;;;5065108;23;20036;-65
2021/10/01 00:50:13;;;;;;;3.43;2.50;;;22.10;62.20;;;;;;5063399;23;20032;-65
2021/10/01 00:52:18;;;;;;;7.00;2.70;;;22.10;62.20;;;;;;5039241;23;20326;-66
2021/10/01 00:54:20;;;;;;;5.20;2.30;;;22.10;62.40;;;;;;5039626;23;20041;-65
2021/10/01 00:56:24;;;;;;;3.97;2.50;;;22.20;62.60;;;;;;5090360;23;20024;-65
2021/10/01 00:58:26;;;;;;;5.45;2.92;;;22.20;62.60;;;;;;5038098;23;20033;-66
2021/10/01 01:00:29;;;;;;;7.50;2.70;;;22.20;63.20;;;;;;5061233;23;20025;-65
2021/10/01 01:02:31;;;;;;;14.68;2.83;;;22.20;62.80;;;;;;5059603;23;20803;-65
2021/10/01 01:04:34;;;;;;;6.85;2.78;;;22.20;62.70;;;;;;5066262;23;20021;-65
2021/10/01 01:06:50;;;;;;;6.47;2.33;;;22.20;62.60;;;;;;5062880;23;20040;-66
2021/10/01 01:08:52;;;;;;;7.65;3.20;;;22.20;62.60;;;;;;5065408;23;20029;-65
2021/10/01 01:11:06;;;;;;;14.80;2.93;;;22.20;62.60;;;;;;5038649;23;20037;-66
2021/10/01 01:13:35;;;;;;;7.65;3.03;;;22.20;62.60;;;;;;5062813;23;20266;-65
2021/10/01 01:16:04;;;;;;;7.43;2.47;;;22.30;62.60;;;;;;5065120;23;20032;-65
2021/10/01 01:18:13;;;;;;;5.03;2.55;;;22.30;62.60;;;;;;5062270;23;20076;-64
2021/10/01 01:20:31;;;;;;;3.92;2.30;;;22.30;62.20;;;;;;5063666;23;20283;-65
2021/10/01 01:22:52;;;;;;;4.90;2.75;;;22.30;61.70;;;;;;5061004;23;20060;-66
2021/10/01 01:25:20;;;;;;;4.68;2.50;;;22.40;61.70;;;;;;5065884;23;20661;-66
2021/10/01 01:27:48;;;;;;;4.03;2.60;;;22.40;61.80;;;;;;5067605;23;20032;-65
2021/10/01 01:30:06;;;;;;;4.53;2.40;;;22.40;62.00;;;;;;5063520;23;20032;-66
2021/10/01 01:32:23;;;;;;;3.17;2.50;;;22.40;62.00;;;;;;5041079;23;20205;-66
2021/10/01 01:34:37;;;;;;;3.53;2.45;;;22.50;62.10;;;;;;5064274;23;20056;-69
2021/10/01 01:36:44;;;;;;;4.30;2.47;;;22.50;62.00;;;;;;5065851;23;20569;-66
2021/10/01 01:38:51;;;;;;;3.22;2.42;;;22.50;62.10;;;;;;5039450;23;20835;-66
2021/10/01 01:40:57;;;;;;;3.38;2.47;;;22.50;62.10;;;;;;5065098;23;20025;-66
2021/10/01 01:43:02;;;;;;;2.88;2.28;;;22.60;62.20;;;;;;5093893;23;20035;-66
2021/10/01 01:45:05;;;;;;;3.00;2.20;;;22.60;62.10;;;;;;5064086;23;20045;-65
2021/10/01 01:47:08;;;;;;;3.72;2.53;;;22.60;62.10;;;;;;5067417;23;20136;-66
2021/10/01 01:49:11;;;;;;;3.40;2.20;;;22.60;62.10;;;;;;5038032;23;20076;-67
2021/10/01 01:51:15;;;;;;;3.85;2.45;;;22.70;62.10;;;;;;5063855;23;20267;-67
2021/10/01 01:53:19;;;;;;;3.45;2.65;;;22.70;62.20;;;;;;5040963;23;20097;-67
2021/10/01 01:55:23;;;;;;;3.60;2.67;;;22.70;62.20;;;;;;5067960;23;20032;-68
2021/10/01 01:57:27;;;;;;;3.35;2.30;;;22.80;62.20;;;;;;5097168;23;20329;-67
2021/10/01 01:59:35;;;;;;;2.78;2.28;;;22.80;62.10;;;;;;5076265;23;20392;-67
2021/10/01 02:34:44;;;;;;;5.40;2.50;;;23.30;61.80;;;;;;5133499;22;3063825;-47
2021/10/01 02:36:47;;;;;;;4.10;2.30;;;23.30;62.10;;;;;;5219602;22;20019;-52
2021/10/01 02:38:51;;;;;;;3.20;2.35;;;23.30;62.50;;;;;;5188740;22;20046;-47
2021/10/01 02:40:53;;;;;;;3.85;2.30;;;23.30;62.50;;;;;;5191297;22;20022;-46
2021/10/01 02:42:55;;;;;;;5.32;2.30;;;23.40;63.20;;;;;;5194678;22;20349;-51
2021/10/01 02:44:58;;;;;;;4.38;2.05;;;23.40;62.60;;;;;;5221862;22;20105;-51
2021/10/01 02:47:01;;;;;;;3.15;2.10;;;23.50;62.70;;;;;;5187215;22;20559;-50
2021/10/01 02:49:03;;;;;;;2.35;1.70;;;23.50;62.70;;;;;;5217795;22;20029;-45
2021/10/01 02:51:14;;;;;;;3.15;2.10;;;23.50;62.70;;;;;;5218462;22;20018;-49
2021/10/01 02:53:37;;;;;;;3.08;2.00;;;23.50;62.70;;;;;;5217089;22;20025;-46
2021/10/01 02:55:59;;;;;;;4.53;2.15;;;23.50;62.60;;;;;;5191992;22;20125;-50
2021/10/01 02:58:09;;;;;;;3.05;2.00;;;23.60;62.60;;;;;;5214191;22;20033;-47
2021/10/01 03:00:12;;;;;;;5.13;1.75;;;23.60;62.60;;;;;;5214590;22;20740;-52
2021/10/01 03:02:16;;;;;;;2.10;1.65;;;23.60;62.70;;;;;;5213436;22;20033;-54
2021/10/01 03:04:20;;;;;;;2.35;1.83;;;23.70;62.60;;;;;;5192300;22;20027;-50
2021/10/01 03:06:24;;;;;;;4.35;2.00;;;23.80;62.60;;;;;;5218157;22;20030;-53
2021/10/01 03:08:29;;;;;;;2.17;1.95;;;23.80;62.70;;;;;;5216453;22;20026;-51
2021/10/01 03:10:32;;;;;;;2.65;1.60;;;23.80;62.60;;;;;;5189712;22;20018;-48
2021/10/01 03:12:35;;;;;;;;;;;23.80;62.50;;;;;;5214898;22;20053;-50
2021/10/01 03:14:40;;;;;;;2.40;1.60;;;23.80;62.40;;;;;;5186095;22;19918;-48
2021/10/01 03:16:44;;;;;;;2.38;1.60;;;23.90;62.40;;;;;;5186732;22;20129;-48
2021/10/01 03:18:48;;;;;;;4.03;1.85;;;23.90;62.40;;;;;;5210089;22;20066;-52
2021/10/01 03:20:51;;;;;;;2.47;1.80;;;23.90;62.10;;;;;;5213816;22;20083;-51
2021/10/01 03:22:54;;;;;;;3.43;1.67;;;24.00;61.80;;;;;;5210039;22;20026;-50
2021/10/01 03:24:56;;;;;;;2.33;1.70;;;24.00;61.70;;;;;;5212900;22;20030;-49
2021/10/01 03:26:58;;;;;;;3.08;1.90;;;24.00;61.40;;;;;;5187694;22;20050;-50
2021/10/01 03:29:02;;;;;;;2.75;1.92;;;24.00;61.20;;;;;;5214111;22;20022;-48
2021/10/01 03:31:04;;;;;;;;;;;24.00;61.00;;;;;;5188021;22;20076;-51
2021/10/01 03:33:07;;;;;;;3.50;1.98;;;24.10;61.10;;;;;;5214680;22;19918;-51
2021/10/01 03:35:10;;;;;;;2.45;1.67;;;24.10;61.20;;;;;;5211703;22;20022;-50
2021/10/01 03:37:12;;;;;;;;;;;24.10;61.30;;;;;;5214761;22;20027;-50
2021/10/01 03:39:14;;;;;;;5.10;1.77;;;24.20;61.20;;;;;;5214605;22;19918;-45
2021/10/01 03:41:16;;;;;;;4.70;2.20;;;24.20;61.00;;;;;;5214593;22;20034;-45
2021/10/01 03:43:24;;;;;;;3.93;2.00;;;24.30;61.20;;;;;;5215721;22;20022;-47
2021/10/01 03:45:26;;;;;;;4.03;1.77;;;24.30;61.00;;;;;;5216607;22;20034;-49
2021/10/01 03:47:28;;;;;;;3.05;1.77;;;24.30;60.90;;;;;;5212484;22;20022;-49
2021/10/01 03:49:30;;;;;;;4.22;1.88;;;24.40;60.90;;;;;;5214970;22;20023;-49
2021/10/01 03:51:33;;;;;;;3.17;1.67;;;24.40;60.80;;;;;;5183666;22;20035;-47
2021/10/01 03:53:35;;;;;;;3.17;1.57;;;24.50;60.70;;;;;;5212504;22;20079;-45
2021/10/01 03:55:38;;;;;;;4.03;1.95;;;24.50;60.60;;;;;;5184230;22;20022;-48
2021/10/01 03:57:40;;;;;;;3.92;1.80;;;24.60;60.40;;;;;;5216087;22;20045;-49
2021/10/01 03:59:43;;;;;;;3.80;1.90;;;24.60;60.40;;;;;;5215056;22;20086;-52
2021/10/01 04:01:45;;;;;;;4.20;1.80;;;24.60;60.30;;;;;;5213698;22;20868;-51
2021/10/01 04:03:47;;;;;;;2.40;1.70;;;24.70;60.30;;;;;;5187154;22;20018;-49
2021/10/01 04:05:49;;;;;;;2.70;1.80;;;24.70;60.30;;;;;;5184120;22;20027;-52
2021/10/01 04:07:51;;;;;;;2.83;1.80;;;24.70;60.30;;;;;;5212640;22;20450;-51
2021/10/01 04:09:54;;;;;;;3.13;1.70;;;24.70;60.30;;;;;;5216653;22;20018;-49
2021/10/01 04:11:57;;;;;;;2.45;1.83;;;24.80;60.30;;;;;;5214124;22;20033;-51
2021/10/01 04:13:59;;;;;;;2.35;1.75;;;24.80;60.20;;;;;;5213214;22;20030;-52
2021/10/01 04:16:01;;;;;;;2.20;1.70;;;24.90;60.10;;;;;;5185391;22;20575;-55
2021/10/01 04:18:04;;;;;;;2.75;1.60;;;24.90;59.80;;;;;;5214048;22;20022;-52
2021/10/01 04:20:07;;;;;;;3.88;1.60;;;24.90;59.60;;;;;;5213284;22;20510;-51
2021/10/01 04:22:08;;;;;;;;;;;25.00;59.60;;;;;;5187737;22;20868;-51
2021/10/01 04:24:11;;;;;;;2.45;1.67;;;25.00;59.50;;;;;;5216933;22;19950;-49
2021/10/01 04:26:13;;;;;;;3.03;1.90;;;25.10;59.10;;;;;;5213225;22;20091;-53
2021/10/01 04:28:17;;;;;;;2.92;1.85;;;25.00;58.80;;;;;;5213165;22;20099;-49
2021/10/01 04:30:19;;;;;;;2.97;1.63;;;25.10;59.00;;;;;;5209308;22;20022;-53
2021/10/01 04:32:21;;;;;;;3.90;1.77;;;25.10;58.90;;;;;;5215032;22;20129;-46
2021/10/01 04:34:23;;;;;;;1.48;1.27;;;25.10;59.60;;;;;;5187632;22;20505;-46
2021/10/01 04:36:26;;;;;;;2.05;1.60;;;25.10;58.80;;;;;;5186611;22;20149;-49
2021/10/01 04:38:29;;;;;;;2.13;1.65;;;25.10;58.80;;;;;;5189159;22;20502;-49
2021/10/01 04:40:33;;;;;;;2.05;1.40;;;25.10;58.80;;;;;;5184015;22;20147;-50
2021/10/01 04:42:35;;;;;;;5.93;1.98;;;25.10;58.70;;;;;;5189638;22;20033;-47
2021/10/01 04:44:38;;;;;;;2.83;1.48;;;25.20;58.70;;;;;;5189398;22;20029;-51
2021/10/01 04:46:40;;;;;;;3.40;1.50;;;25.20;58.70;;;;;;5186963;22;20130;-48
2021/10/01 04:48:42;;;;;;;2.35;1.60;;;25.20;58.80;;;;;;5188004;22;20019;-49
2021/10/01 04:50:44;;;;;;;3.53;1.73;;;25.20;58.80;;;;;;5191728;22;20022;-49
2021/10/01 04:52:46;;;;;;;3.00;1.70;;;25.10;58.80;;;;;;5184934;22;20030;-51
2021/10/01 04:54:49;;;;;;;2.40;1.47;;;25.20;58.80;;;;;;5189478;22;20050;-47
2021/10/01 04:56:51;;;;;;;2.25;1.58;;;25.20;59.00;;;;;;5188496;22;20023;-47
2021/10/01 04:58:53;;;;;;;2.67;1.60;;;25.20;59.60;;;;;;5187236;22;20030;-50
2021/10/01 05:02:14;;;;;;;3.00;1.65;;;25.20;58.50;;;;;;4164517;27;20647;-45
2021/10/01 05:04:16;;;;;;;2.72;1.70;;;25.20;58.80;;;;;;4163145;27;20063;-49
2021/10/01 05:06:18;;;;;;;4.23;1.80;;;25.10;58.70;;;;;;4161848;27;20052;-51
2021/10/01 05:08:21;;;;;;;2.38;1.55;;;25.10;58.80;;;;;;4160819;27;20052;-49
2021/10/01 05:10:23;;;;;;;2.22;1.65;;;25.20;58.90;;;;;;4171385;27;20053;-52
2021/10/01 05:12:25;;;;;;;;;;;25.20;58.80;;;;;;4169984;27;21740;-51
2021/10/01 05:14:27;;;;;;;2.45;1.42;;;25.20;58.80;;;;;;4160340;27;20661;-48
2021/10/01 05:16:30;;;;;;;1.77;1.30;;;25.20;58.70;;;;;;4161370;28;20048;-49
2021/10/01 05:18:33;;;;;;;2.03;1.50;;;25.20;58.70;;;;;;4174763;22;20560;-67
2021/10/01 05:20:41;;;;;;;2.17;1.42;;;25.20;58.70;;;;;;4080668;28;22161;-68
2021/10/01 05:22:43;;;;;;;2.70;1.55;;;25.20;58.80;;;;;;4102782;28;20042;-66
2021/10/01 05:24:45;;;;;;;2.33;1.50;;;25.20;58.80;;;;;;4084342;28;20761;-67
2021/10/01 05:26:47;;;;;;;1.38;1.20;;;25.20;58.80;;;;;;4106907;28;20721;-73
2021/10/01 05:28:50;;;;;;;2.13;1.50;;;25.20;58.70;;;;;;4103537;28;20069;-71
2021/10/01 05:30:52;;;;;;;1.65;1.40;;;25.30;58.70;;;;;;4123327;28;20045;-67
2021/10/01 05:32:54;;;;;;;3.00;1.70;;;25.30;58.70;;;;;;4101085;28;22009;-69
2021/10/01 05:34:56;;;;;;;2.13;1.60;;;25.30;58.60;;;;;;4104913;28;20084;-69
2021/10/01 05:36:59;;;;;;;2.13;1.38;;;25.30;58.50;;;;;;4084782;28;20104;-71
2021/10/01 05:39:02;;;;;;;3.20;1.77;;;25.40;58.60;;;;;;4104751;28;20042;-67
2021/10/01 05:41:05;;;;;;;2.22;1.42;;;25.40;58.60;;;;;;4101949;28;20842;-71
2021/10/01 05:43:07;;;;;;;2.03;1.50;;;25.40;58.30;;;;;;4084804;28;20121;-71
2021/10/01 05:45:10;;;;;;;2.17;1.80;;;25.40;58.30;;;;;;4102199;28;21127;-75
2021/10/01 05:47:12;;;;;;;1.80;1.48;;;25.40;58.50;;;;;;4116696;28;20049;-70
2021/10/01 05:49:20;;;;;;;2.60;1.75;;;25.40;58.40;;;;;;4096707;28;20328;-71
2021/10/01 05:51:23;;;;;;;2.15;1.40;;;25.30;58.40;;;;;;4116645;28;20065;-71
2021/10/01 05:53:50;;;;;;;1.70;1.30;;;25.40;58.50;;;;;;4098097;28;20107;-71
2021/10/01 05:55:48;;;;;;;1.63;1.50;;;25.30;58.40;;;;;;4099240;28;20069;-70
2021/10/01 05:57:50;;;;;;;2.47;1.40;;;25.30;58.50;;;;;;4119333;28;20418;-68
2021/10/01 05:59:53;;;;;;;2.38;1.55;;;25.30;58.60;;;;;;4090404;28;20161;-69
2021/10/01 06:01:55;;;;;;;2.22;1.27;;;25.30;58.60;;;;;;4085089;28;20148;-67
2021/10/01 06:03:57;;;;;;;2.47;1.50;;;25.30;58.70;;;;;;4086589;28;20050;-68
2021/10/01 06:06:00;;;;;;;2.55;1.80;;;25.30;58.70;;;;;;4086631;28;20086;-68
2021/10/01 06:08:02;;;;;;;3.08;1.73;;;25.30;58.70;;;;;;4088169;28;20164;-69
2021/10/01 06:10:06;;;;;;;2.45;1.60;;;25.30;58.80;;;;;;4089450;28;20059;-68
2021/10/01 06:12:13;;;;;;;2.28;1.40;;;25.30;58.80;;;;;;4088178;28;20119;-69
2021/10/01 06:14:20;;;;;;;2.05;1.77;;;25.30;58.70;;;;;;4082025;28;20189;-68
2021/10/01 06:16:22;;;;;;;2.25;1.55;;;25.30;58.80;;;;;;4081648;28;20539;-70
2021/10/01 06:18:24;;;;;;;3.20;2.10;;;25.30;58.70;;;;;;4081237;28;20133;-71
2021/10/01 06:20:27;;;;;;;1.52;1.30;;;25.30;58.80;;;;;;4082746;28;20175;-71
2021/10/01 06:22:29;;;;;;;2.38;1.52;;;25.30;58.90;;;;;;4076375;28;20068;-73
2021/10/01 06:24:31;;;;;;;2.78;1.67;;;25.30;58.70;;;;;;4078694;28;20053;-72
2021/10/01 06:26:34;;;;;;;2.88;1.77;;;25.30;58.80;;;;;;4083034;28;20050;-71
2021/10/01 06:28:36;;;;;;;2.50;1.70;;;25.30;58.80;;;;;;4096985;28;20066;-71
2021/10/01 06:30:38;;;;;;;2.13;1.53;;;25.30;58.90;;;;;;4094397;28;21459;-71
2021/10/01 06:32:41;;;;;;;2.03;1.50;;;25.30;58.80;;;;;;4098331;28;20104;-71
2021/10/01 06:34:43;;;;;;;2.60;1.50;;;25.30;58.90;;;;;;4096333;28;20161;-72
2021/10/01 06:36:45;;;;;;;2.83;1.70;;;25.30;58.90;;;;;;4083083;28;20061;-68
2021/10/01 06:38:47;;;;;;;5.67;2.13;;;25.30;58.90;;;;;;4079517;28;20774;-73
2021/10/01 06:40:50;;;;;;;3.63;1.83;;;25.30;58.90;;;;;;4083559;28;20533;-71
2021/10/01 06:42:55;;;;;;;3.35;2.10;;;25.30;58.80;;;;;;4080018;28;20606;-72
2021/10/01 06:45:00;;;;;;;4.38;1.90;;;25.30;58.90;;;;;;4079830;28;20495;-70
2021/10/01 06:47:07;;;;;;;3.13;1.80;;;25.30;58.80;;;;;;4096256;28;20139;-72
2021/10/01 06:49:34;;;;;;;3.30;1.75;;;25.30;58.80;;;;;;4094024;28;20971;-70
2021/10/01 07:37:02;;;;;;;3.13;2.17;;;24.90;56.70;;;;;;4073469;28;20070;-75
2021/10/01 08:20:46;;;;;;;3.17;1.98;;;24.50;57.60;;;;;;4125764;28;20138;-52
2021/10/01 08:22:48;;;;;;;2.83;2.00;;;24.50;57.70;;;;;;4127909;28;20056;-55
2021/10/01 08:24:50;;;;;;;3.13;2.03;;;24.50;57.70;;;;;;4129977;28;20060;-56
2021/10/01 08:26:53;;;;;;;3.88;2.00;;;24.50;57.80;;;;;;4127587;28;20044;-50
2021/10/01 08:28:56;;;;;;;4.20;2.40;;;24.50;57.80;;;;;;4128814;28;20045;-56
2021/10/01 08:30:58;;;;;;;4.47;2.13;;;24.40;57.80;;;;;;4128032;28;20041;-52
2021/10/01 08:33:01;;;;;;;5.03;2.03;;;24.40;57.90;;;;;;4129590;28;21116;-50
2021/10/01 08:35:04;;;;;;;2.97;1.97;;;24.40;58.00;;;;;;4130424;28;20053;-48
2021/10/01 08:37:07;;;;;;;3.33;1.80;;;24.40;58.10;;;;;;4132821;28;20300;-53
2021/10/01 08:39:10;;;;;;;4.75;1.95;;;24.40;58.20;;;;;;4130232;28;20222;-51
2021/10/01 08:41:14;;;;;;;4.60;1.60;;;24.40;58.60;;;;;;4131385;28;20056;-49
2021/10/01 08:43:17;;;;;;;5.28;1.80;;;24.40;58.30;;;;;;4132708;28;22045;-54
2021/10/01 08:45:21;;;;;;;4.28;2.20;;;24.40;58.10;;;;;;4132180;28;20131;-57
2021/10/01 08:47:26;;;;;;;4.53;1.70;;;24.40;58.00;;;;;;4131159;28;20167;-56
2021/10/01 08:49:30;;;;;;;2.50;1.60;;;24.40;58.00;;;;;;4129375;28;20048;-50
2021/10/01 08:51:33;;;;;;;4.07;1.80;;;24.30;58.00;;;;;;4127230;28;20053;-55
2021/10/01 08:53:36;;;;;;;3.28;1.75;;;24.30;57.90;;;;;;4124402;28;20554;-48
2021/10/01 08:55:38;;;;;;;;;;;24.30;57.80;;;;;;4129237;28;20064;-57
2021/10/01 08:57:40;;;;;;;2.28;1.30;;;24.30;57.80;;;;;;4122607;28;19928;-57
2021/10/01 08:59:44;;;;;;;2.22;1.50;;;24.30;58.00;;;;;;4123915;28;20059;-53
2021/10/01 09:01:47;;;;;;;3.97;1.60;;;24.20;58.10;;;;;;4123335;28;20462;-52
2021/10/01 09:03:49;;;;;;;4.97;1.90;;;24.20;58.10;;;;;;4128963;28;20100;-54
2021/10/01 09:05:51;;;;;;;2.63;1.50;;;24.20;58.20;;;;;;4127129;28;20060;-46
2021/10/01 09:07:53;;;;;;;2.85;1.92;;;24.20;58.20;;;;;;4124682;28;20162;-51
2021/10/01 09:09:56;;;;;;;1.97;1.43;;;24.20;58.30;;;;;;4157375;28;20087;-49
2021/10/01 09:12:01;;;;;;;3.60;1.77;;;24.10;58.30;;;;;;4121924;28;20057;-51
2021/10/01 09:14:08;;;;;;;2.92;1.55;;;24.10;58.50;;;;;;4114574;28;20073;-53
2021/10/01 09:16:12;;;;;;;3.10;1.63;;;24.10;58.50;;;;;;4111139;28;20070;-45
2021/10/01 09:18:14;;;;;;;2.45;1.33;;;24.10;58.40;;;;;;4112771;28;20041;-51
2021/10/01 09:20:18;;;;;;;2.35;1.50;;;24.10;58.50;;;;;;4109583;28;20076;-50
2021/10/01 09:22:35;;;;;;;2.00;1.40;;;24.10;58.50;;;;;;4094399;28;20107;-50
2021/10/01 09:24:42;;;;;;;2.20;1.30;;;24.00;58.50;;;;;;4107349;28;20159;-51
2021/10/01 09:26:51;;;;;;;2.53;1.52;;;24.00;58.60;;;;;;4113877;28;20077;-52
2021/10/01 09:28:54;;;;;;;2.38;1.42;;;24.00;58.60;;;;;;4095315;28;20053;-49
2021/10/01 09:30:57;;;;;;;2.30;1.30;;;24.00;58.70;;;;;;4111641;28;20061;-49
2021/10/01 09:33:08;;;;;;;3.90;1.55;;;24.00;58.70;;;;;;4111203;28;20052;-48
2021/10/01 09:35:16;;;;;;;2.25;1.55;;;24.00;58.70;;;;;;4111754;28;20067;-47
2021/10/01 09:37:31;;;;;;;2.22;1.50;;;24.00;58.70;;;;;;4109889;28;20126;-50
2021/10/01 09:39:51;;;;;;;2.28;1.40;;;23.90;58.80;;;;;;4111329;28;20545;-52
2021/10/01 09:41:54;;;;;;;1.92;1.15;;;23.90;58.90;;;;;;4109257;28;20061;-46
2021/10/01 09:44:13;;;;;;;1.73;1.30;;;23.90;59.00;;;;;;4113046;28;20068;-48
2021/10/01 09:46:16;;;;;;;2.63;1.38;;;23.90;58.90;;;;;;4114001;28;20045;-54
2021/10/01 09:48:18;;;;;;;2.13;1.55;;;23.90;59.00;;;;;;4109335;28;21058;-59
2021/10/01 09:50:30;;;;;;;2.08;1.65;;;23.90;59.00;;;;;;4110052;28;20610;-56
2021/10/01 09:52:50;;;;;;;2.42;1.40;;;23.80;58.90;;;;;;4112825;28;20048;-52
2021/10/01 09:55:05;;;;;;;2.65;1.25;;;23.80;59.00;;;;;;4109873;28;20048;-50
2021/10/01 09:57:08;;;;;;;2.25;1.83;;;23.80;59.00;;;;;;4108844;28;20057;-52
2021/10/01 09:59:19;;;;;;;33.10;2.63;;;23.80;59.10;;;;;;4100104;28;20148;-53
2021/10/01 10:01:22;;;;;;;2.78;1.70;;;23.80;59.50;;;;;;4112884;28;20072;-52
2021/10/01 10:03:24;;;;;;;3.35;1.80;;;23.80;59.70;;;;;;4108238;28;21489;-48
2021/10/01 10:05:44;;;;;;;4.57;1.80;;;;;;;;;;4110027;28;20053;-52
2021/10/01 10:07:47;;;;;;;2.20;1.50;;;23.80;59.80;;;;;;4113707;28;20059;-47
2021/10/01 10:09:58;;;;;;;2.10;1.40;;;23.80;59.90;;;;;;4108026;28;20068;-50
2021/10/01 10:12:01;;;;;;;1.60;1.50;;;23.80;59.90;;;;;;4110834;28;20223;-47
2021/10/01 10:14:12;;;;;;;2.05;1.50;;;23.80;59.90;;;;;;4112301;28;20041;-46
2021/10/01 10:16:19;;;;;;;2.33;1.63;;;23.80;60.00;;;;;;4108684;28;20767;-51
2021/10/01 10:18:21;;;;;;;2.17;1.63;;;23.80;60.00;;;;;;4113322;28;20060;-49
2021/10/01 10:20:23;;;;;;;1.70;1.50;;;23.80;59.90;;;;;;4108375;28;20253;-49
2021/10/01 10:22:27;;;;;;;2.20;1.60;;;23.80;60.10;;;;;;4109717;28;20313;-54
2021/10/01 10:24:31;;;;;;;2.10;1.65;;;23.80;60.10;;;;;;4107243;28;20168;-49
2021/10/01 10:26:34;;;;;;;3.63;1.70;;;23.80;60.00;;;;;;4107889;28;20075;-55
2021/10/01 10:28:37;;;;;;;;;;;23.80;60.10;;;;;;4109933;28;20909;-49
2021/10/01 10:30:40;;;;;;;2.45;1.80;;;23.80;60.10;;;;;;4110699;28;20371;-54
2021/10/01 10:32:42;;;;;;;2.85;1.40;;;23.80;60.20;;;;;;4111354;28;20059;-50
2021/10/01 10:34:51;;;;;;;2.08;1.50;;;23.80;60.20;;;;;;4112381;28;20146;-48
2021/10/01 10:37:10;;;;;;;3.03;1.50;;;23.80;60.20;;;;;;4112766;28;20072;-48
2021/10/01 10:39:12;;;;;;;2.15;1.60;;;23.80;60.10;;;;;;4104636;28;20048;-51
2021/10/01 10:41:26;;;;;;;2.38;1.85;;;23.80;60.20;;;;;;4108176;28;20045;-49
2021/10/01 10:43:28;;;;;;;1.60;1.50;;;23.80;60.20;;;;;;4113068;28;20071;-49
2021/10/01 10:45:37;;;;;;;2.38;1.60;;;23.80;60.00;;;;;;4111788;28;20123;-51
2021/10/01 10:47:52;;;;;;;2.83;1.80;;;23.80;60.00;;;;;;4111652;28;20130;-51
2021/10/01 10:50:26;;;;;;;2.72;1.80;;;23.80;60.00;;;;;;4112717;28;20053;-47
2021/10/01 10:52:28;;;;;;;1.63;1.40;;;23.80;60.00;;;;;;4111980;28;20215;-51
2021/10/01 10:54:58;;;;;;;2.35;1.50;;;23.80;60.00;;;;;;4110424;28;20063;-55
2021/10/01 10:59:30;;;;;;;2.58;1.80;;;23.80;59.90;;;;;;4110860;28;20251;-49
2021/10/01 11:02:44;;;;;;;4.43;2.08;;;23.70;59.30;;;;;;4152276;27;21060;-50
2021/10/01 11:04:50;;;;;;;3.40;1.80;;;23.80;59.80;;;;;;4151723;28;20483;-51
2021/10/01 11:06:53;;;;;;;6.10;2.00;;;23.70;60.00;;;;;;4149212;28;20340;-50
2021/10/01 11:09:13;;;;;;;4.75;2.30;;;23.70;60.40;;;;;;4128709;28;20048;-50
2021/10/01 11:11:33;;;;;;;6.10;1.90;;;23.80;60.70;;;;;;4149668;28;21416;-50
2021/10/01 11:13:36;;;;;;;4.32;2.15;;;23.70;60.70;;;;;;4148097;28;20051;-52
2021/10/01 11:15:38;;;;;;;3.13;1.73;;;23.70;60.70;;;;;;4147983;28;20040;-46
2021/10/01 11:17:42;;;;;;;4.53;1.95;;;23.70;60.70;;;;;;4128643;28;21470;-73
2021/10/01 11:19:47;;;;;;;7.82;2.20;;;23.70;60.70;;;;;;4147070;28;20073;-68
2021/10/01 11:21:50;;;;;;;5.22;2.17;;;23.70;60.80;;;;;;4167378;27;20073;-67
2021/10/01 11:24:14;;;;;;;4.35;1.58;;;23.70;61.00;;;;;;4170096;27;20051;-65
2021/10/01 11:26:29;;;;;;;4.93;2.10;;;23.70;60.90;;;;;;4171279;27;20139;-69
2021/10/01 11:28:36;;;;;;;3.28;2.08;;;23.60;60.80;;;;;;4165903;27;20043;-70
2021/10/01 11:30:40;;;;;;;4.75;2.05;;;23.60;60.70;;;;;;4151846;28;20047;-71
2021/10/01 11:32:42;;;;;;;5.55;2.28;;;23.60;60.90;;;;;;4168603;27;20059;-69
2021/10/01 11:34:48;;;;;;;9.52;2.17;;;23.60;60.90;;;;;;4167781;27;20509;-63
2021/10/01 11:36:50;;;;;;;8.25;2.10;;;23.60;61.10;;;;;;4173854;27;20055;-65
2021/10/01 11:39:12;;;;;;;17.55;1.83;;;23.60;61.00;;;;;;4167656;27;20054;-69
2021/10/01 11:41:17;;;;;;;4.78;1.70;;;23.60;61.40;;;;;;4166665;27;20856;-65
2021/10/01 11:43:20;;;;;;;4.10;2.08;;;23.60;61.00;;;;;;4166801;27;20102;-68
2021/10/01 11:45:35;;;;;;;6.15;2.55;;;23.60;61.10;;;;;;4151539;28;20052;-71
2021/10/01 11:47:39;;;;;;;2.78;1.88;;;23.60;61.00;;;;;;4174953;27;20619;-67
2021/10/01 11:49:42;;;;;;;5.10;2.20;;;23.60;60.90;;;;;;4168960;27;20055;-65
2021/10/01 11:52:02;;;;;;;2.50;1.50;;;23.50;60.80;;;;;;4142953;28;20044;-66
2021/10/01 11:54:15;;;;;;;8.65;2.28;;;23.50;60.70;;;;;;4146560;28;21440;-68
2021/10/01 11:56:22;;;;;;;5.00;2.03;;;23.50;61.60;;;;;;4149790;28;20063;-64
2021/10/01 11:58:27;;;;;;;3.30;2.00;;;23.50;61.00;;;;;;4172688;27;20134;-70
2021/10/01 12:00:29;;;;;;;5.85;2.13;;;23.50;61.20;;;;;;4170245;27;20079;-71
2021/10/01 12:02:32;;;;;;;5.45;2.30;;;23.50;61.20;;;;;;4163775;27;20917;-69
2021/10/01 12:04:35;;;;;;;5.40;2.20;;;23.50;61.20;;;;;;4150591;28;20048;-72
2021/10/01 12:06:37;;;;;;;7.28;2.20;;;23.50;61.30;;;;;;4165872;27;20146;-69
2021/10/01 12:08:39;;;;;;;3.60;2.25;;;23.50;61.20;;;;;;4165751;27;20054;-68
2021/10/01 12:10:47;;;;;;;5.43;2.35;;;23.50;61.40;;;;;;4173747;27;20051;-67
2021/10/01 12:13:22;;;;;;;6.97;2.50;;;23.40;61.10;;;;;;4164273;27;20949;-65
2021/10/01 12:15:46;;;;;;;11.25;2.45;;;23.40;61.00;;;;;;4141111;28;20662;-70
2021/10/01 12:17:48;;;;;;;7.78;2.40;;;23.40;61.10;;;;;;4155367;27;20607;-67
2021/10/01 12:19:51;;;;;;;7.95;2.13;;;23.40;61.50;;;;;;4143584;28;20048;-67
2021/10/01 12:22:12;;;;;;;5.50;2.30;;;23.40;61.30;;;;;;4160433;28;20051;-67
2021/10/01 12:24:16;;;;;;;4.72;2.10;;;23.40;61.20;;;;;;4159039;28;20328;-66
2021/10/01 12:26:21;;;;;;;7.03;2.78;;;23.40;61.30;;;;;;4156489;28;20132;-65
2021/10/01 12:28:25;;;;;;;5.00;2.30;;;23.40;61.20;;;;;;4133295;28;20054;-65
2021/10/01 12:30:27;;;;;;;4.68;2.33;;;23.40;61.20;;;;;;4132215;28;20134;-68
2021/10/01 12:32:29;;;;;;;7.85;2.40;;;23.40;61.10;;;;;;4135899;28;20047;-66
2021/10/01 12:34:35;;;;;;;4.47;2.33;;;23.30;61.10;;;;;;4136843;28;20102;-69
2021/10/01 12:36:38;;;;;;;7.57;2.30;;;23.40;61.20;;;;;;4136784;28;20171;-69
2021/10/01 12:38:41;;;;;;;8.80;2.40;;;23.30;61.20;;;;;;4136479;28;20063;-69
2021/10/01 12:40:43;;;;;;;4.80;2.42;;;23.30;61.20;;;;;;4153037;28;20048;-64
2021/10/01 12:42:53;;;;;;;7.53;2.38;;;23.30;61.10;;;;;;4156065;28;20076;-63
2021/10/01 12:44:58;;;;;;;6.70;2.40;;;23.30;61.30;;;;;;4153438;28;20079;-63
2021/10/01 12:47:18;;;;;;;4.28;2.30;;;23.30;61.50;;;;;;4162829;28;21691;-62
2021/10/01 12:49:23;;;;;;;6.97;2.30;;;23.30;61.50;;;;;;4158347;27;20047;-64
2021/10/01 12:51:25;;;;;;;8.40;2.95;;;23.30;61.60;;;;;;4155794;28;20063;-67
2021/10/01 12:53:27;;;;;;;6.95;2.53;;;23.30;61.60;;;;;;4161903;28;20051;-65
2021/10/01 12:55:33;;;;;;;6.95;2.47;;;23.30;61.70;;;;;;4159640;27;20051;-64
2021/10/01 12:57:41;;;;;;;10.75;2.83;;;23.30;61.60;;;;;;4162234;28;20055;-64
2021/10/01 12:59:47;;;;;;;6.03;2.63;;;23.30;61.70;;;;;;4162202;27;20048;-67